Time;durP1;ratioP1;P1;durP2;ratioP2;P2;SDS_P1;SDS_P2;PMS_P1;PMS_P2;Temp;Humidity;BMP_temperature;BMP_pressure;BME280_temperature;BME280_humidity;BME280_pressure;Samples;Min_cycle;Max_cycle;Signal;HPM_P1;HPM_P2
2024/01/01 00:01:47;;;;;;;11.25;2.72;;;16.10;46.70;;;;;;5095069;28;20300;-63
2024/01/01 00:04:14;;;;;;;11.48;3.22;;;16.00;46.60;;;;;;5094788;28;20269;-62
2024/01/01 00:06:42;;;;;;;10.70;3.03;;;16.00;46.60;;;;;;5095045;28;20308;-63
2024/01/01 00:09:09;;;;;;;11.85;3.10;;;16.00;46.60;;;;;;5094924;28;20277;-63
2024/01/01 00:11:37;;;;;;;13.43;2.75;;;16.00;47.40;;;;;;5094499;28;20308;-62
2024/01/01 00:14:04;;;;;;;11.40;3.00;;;16.00;46.60;;;;;;5094878;28;20277;-63
2024/01/01 00:16:31;;;;;;;12.57;3.25;;;16.00;46.60;;;;;;5094374;28;20791;-63
2024/01/01 00:18:58;;;;;;;20.10;3.00;;;16.00;46.60;;;;;;5094785;28;20289;-63
2024/01/01 00:21:25;;;;;;;20.42;2.97;;;16.00;46.60;;;;;;5094663;28;20197;-63
2024/01/01 00:23:53;;;;;;;11.23;2.85;;;16.00;46.60;;;;;;5094681;28;20265;-63
2024/01/01 00:26:20;;;;;;;14.25;2.85;;;16.00;46.60;;;;;;5093527;28;20186;-63
2024/01/01 00:28:47;;;;;;;9.18;2.58;;;16.00;46.70;;;;;;5094653;28;20273;-63
2024/01/01 00:31:14;;;;;;;15.20;3.00;;;16.00;46.70;;;;;;5094506;28;20288;-62
2024/01/01 00:33:40;;;;;;;12.10;2.90;;;16.00;46.70;;;;;;5093906;28;20192;-63
2024/01/01 00:36:08;;;;;;;12.13;2.88;;;16.00;46.70;;;;;;5094676;28;20652;-63
2024/01/01 00:38:35;;;;;;;9.80;3.35;;;16.00;46.80;;;;;;5094678;28;20214;-63
2024/01/01 00:41:03;;;;;;;15.32;3.08;;;16.00;46.80;;;;;;5094026;28;20192;-63
2024/01/01 00:43:31;;;;;;;10.02;3.15;;;16.00;46.80;;;;;;5093907;28;20665;-62
2024/01/01 00:45:58;;;;;;;11.27;2.85;;;16.00;46.70;;;;;;5094123;28;20232;-60
2024/01/01 00:48:24;;;;;;;12.27;2.72;;;16.00;46.70;;;;;;5093604;28;20330;-60
2024/01/01 00:50:51;;;;;;;12.02;3.17;;;16.00;46.80;;;;;;5094141;28;20277;-63
2024/01/01 00:53:18;;;;;;;9.68;2.55;;;16.00;46.80;;;;;;5093822;28;20218;-63
2024/01/01 00:55:46;;;;;;;11.35;3.60;;;16.00;46.80;;;;;;5093696;28;20305;-63
2024/01/01 00:58:14;;;;;;;8.55;2.78;;;16.00;46.80;;;;;;5093990;28;20221;-63
2024/01/01 01:00:41;;;;;;;14.65;3.58;;;16.00;46.80;;;;;;5094141;28;20322;-63
2024/01/01 01:03:08;;;;;;;10.05;2.97;;;16.00;46.80;;;;;;5093863;28;20300;-63
2024/01/01 01:05:35;;;;;;;12.98;2.97;;;16.00;46.80;;;;;;5093839;28;20278;-63
2024/01/01 01:08:01;;;;;;;15.73;3.28;;;16.00;46.80;;;;;;5093990;28;20301;-62
2024/01/01 01:10:28;;;;;;;8.25;2.47;;;16.00;46.80;;;;;;5093211;28;20740;-62
2024/01/01 01:12:55;;;;;;;11.95;2.80;;;16.00;46.80;;;;;;5093529;28;20246;-62
2024/01/01 01:15:28;;;;;;;9.60;2.33;;;16.00;46.80;;;;;;5093686;28;20312;-62
2024/01/01 01:17:55;;;;;;;13.70;3.17;;;16.00;46.80;;;;;;5093476;28;20222;-61
2024/01/01 01:20:22;;;;;;;14.52;3.28;;;16.00;46.80;;;;;;5093627;28;20404;-62
2024/01/01 01:22:49;;;;;;;8.88;2.88;;;16.00;46.80;;;;;;5093962;28;20275;-63
2024/01/01 01:25:16;;;;;;;13.38;3.75;;;16.00;46.80;;;;;;5093328;28;20367;-62
2024/01/01 01:27:43;;;;;;;10.35;2.97;;;16.00;46.80;;;;;;5093526;28;20301;-62
2024/01/01 01:30:11;;;;;;;11.45;2.97;;;16.00;46.80;;;;;;5093799;28;20277;-62
2024/01/01 01:32:40;;;;;;;14.25;3.13;;;16.00;46.80;;;;;;5093012;28;20308;-63
2024/01/01 01:35:07;;;;;;;11.07;2.78;;;16.00;46.70;;;;;;5093276;28;20265;-63
2024/01/01 01:37:34;;;;;;;10.40;2.55;;;15.90;46.70;;;;;;5092806;28;20770;-63
2024/01/01 01:40:01;;;;;;;13.20;2.53;;;16.00;46.80;;;;;;5092592;28;20273;-63
2024/01/01 01:42:28;;;;;;;10.57;2.65;;;15.90;46.60;;;;;;5093269;28;20305;-62
2024/01/01 01:44:55;;;;;;;10.65;2.58;;;16.00;46.70;;;;;;5092997;28;20186;-63
2024/01/01 01:47:22;;;;;;;14.45;3.35;;;16.00;46.70;;;;;;5092467;28;20321;-63
2024/01/01 01:49:51;;;;;;;14.40;2.92;;;16.00;46.70;;;;;;5093111;28;20281;-63
2024/01/01 01:52:18;;;;;;;10.02;2.90;;;16.00;46.70;;;;;;5092614;28;20221;-63
2024/01/01 01:54:47;;;;;;;10.95;3.03;;;15.90;46.70;;;;;;5092709;28;20201;-63
2024/01/01 01:57:15;;;;;;;10.63;2.95;;;15.90;46.60;;;;;;5092926;28;20312;-63
2024/01/01 01:59:43;;;;;;;15.15;2.42;;;15.90;46.60;;;;;;5092942;28;20183;-62
2024/01/01 02:02:11;;;;;;;12.30;2.97;;;15.90;46.60;;;;;;5092231;28;20301;-63
2024/01/01 02:04:37;;;;;;;13.00;2.67;;;15.90;46.60;;;;;;5092850;28;20277;-63
2024/01/01 02:07:06;;;;;;;12.32;2.58;;;15.90;46.60;;;;;;5092535;28;20707;-63
2024/01/01 02:09:33;;;;;;;12.90;3.17;;;15.90;46.70;;;;;;5092485;28;20617;-62
2024/01/01 02:12:00;;;;;;;11.70;3.03;;;15.90;46.60;;;;;;5092423;28;20300;-61
2024/01/01 02:14:27;;;;;;;14.13;2.85;;;15.90;46.70;;;;;;5092350;28;20273;-62
2024/01/01 02:16:54;;;;;;;15.50;3.70;;;15.90;46.60;;;;;;5092079;28;20235;-62
2024/01/01 02:19:22;;;;;;;11.90;2.72;;;15.90;46.60;;;;;;5092748;28;20229;-63
2024/01/01 02:21:51;;;;;;;14.40;3.03;;;15.90;46.60;;;;;;5092507;28;20250;-63
2024/01/01 02:24:20;;;;;;;10.07;2.63;;;15.90;46.70;;;;;;5092298;28;20192;-61
2024/01/01 02:26:48;;;;;;;14.73;3.10;;;15.90;46.60;;;;;;5092355;28;20598;-63
2024/01/01 02:29:16;;;;;;;13.75;3.30;;;15.90;46.70;;;;;;5092234;28;20748;-62
2024/01/01 02:31:43;;;;;;;11.13;2.70;;;15.90;46.60;;;;;;5091776;28;20304;-62
2024/01/01 02:34:10;;;;;;;9.45;2.70;;;15.90;46.70;;;;;;5090202;28;20277;-62
2024/01/01 02:36:37;;;;;;;14.65;3.00;;;15.90;46.70;;;;;;5092066;28;20711;-62
2024/01/01 02:39:05;;;;;;;12.13;3.10;;;15.90;46.70;;;;;;5091909;28;20276;-62
2024/01/01 02:41:34;;;;;;;13.10;2.78;;;15.90;46.70;;;;;;5092251;28;20236;-62
2024/01/01 02:44:01;;;;;;;11.02;3.33;;;15.90;46.70;;;;;;5092388;28;20265;-63
2024/01/01 02:46:28;;;;;;;14.80;2.95;;;16.00;46.80;;;;;;5091759;28;20273;-62
2024/01/01 02:48:55;;;;;;;11.20;2.42;;;15.90;46.70;;;;;;5092464;28;20194;-63
2024/01/01 02:51:22;;;;;;;13.23;3.10;;;15.90;46.70;;;;;;5095991;28;20300;-63
2024/01/01 02:53:49;;;;;;;12.57;2.97;;;15.90;46.70;;;;;;5095778;28;20280;-62
2024/01/01 02:56:19;;;;;;;13.00;2.80;;;15.90;46.60;;;;;;5095954;28;20304;-63
2024/01/01 02:58:48;;;;;;;10.65;2.97;;;15.90;46.70;;;;;;5096154;28;20217;-63
2024/01/01 03:01:15;;;;;;;15.35;2.42;;;15.90;46.70;;;;;;5096083;28;20332;-63
2024/01/01 03:03:42;;;;;;;12.45;3.22;;;15.90;46.70;;;;;;5096213;28;20304;-62
2024/01/01 03:06:08;;;;;;;14.30;3.30;;;15.90;46.70;;;;;;5096309;28;20624;-62
2024/01/01 03:08:37;;;;;;;15.00;2.72;;;15.90;46.70;;;;;;5095735;28;20308;-62
2024/01/01 03:11:05;;;;;;;12.30;3.38;;;15.90;46.70;;;;;;5096200;28;20286;-63
2024/01/01 03:13:32;;;;;;;15.02;3.25;;;15.90;46.70;;;;;;5096041;28;20217;-62
2024/01/01 03:16:00;;;;;;;10.30;2.40;;;15.90;46.70;;;;;;5095671;28;20225;-62
2024/01/01 03:18:28;;;;;;;10.43;2.83;;;15.90;46.60;;;;;;5095872;28;20309;-62
2024/01/01 03:20:55;;;;;;;13.40;3.05;;;15.90;46.60;;;;;;5095469;28;20678;-63
2024/01/01 03:23:22;;;;;;;11.70;3.45;;;15.90;46.60;;;;;;5095213;28;20703;-63
2024/01/01 03:25:48;;;;;;;12.85;2.83;;;15.90;46.60;;;;;;5095853;28;20269;-62
2024/01/01 03:28:16;;;;;;;16.63;3.60;;;15.90;46.60;;;;;;5095717;28;20300;-63
2024/01/01 03:30:44;;;;;;;11.55;2.67;;;15.90;46.60;;;;;;5095498;28;20193;-62
2024/01/01 03:33:12;;;;;;;12.77;3.67;;;15.90;46.60;;;;;;5095568;28;20304;-62
2024/01/01 03:35:39;;;;;;;12.18;3.00;;;15.90;46.60;;;;;;5095807;28;20272;-63
2024/01/01 03:38:06;;;;;;;18.58;3.25;;;15.90;46.70;;;;;;5095236;28;20302;-62
2024/01/01 03:40:33;;;;;;;14.35;3.00;;;15.90;46.60;;;;;;5095329;28;20190;-60
2024/01/01 03:43:00;;;;;;;11.90;2.85;;;15.90;46.70;;;;;;5095131;28;20647;-61
2024/01/01 03:45:27;;;;;;;11.65;2.75;;;15.90;46.70;;;;;;5095148;28;20214;-60
2024/01/01 03:47:54;;;;;;;18.80;3.83;;;15.90;46.60;;;;;;5095061;28;20320;-59
2024/01/01 03:50:23;;;;;;;15.07;3.17;;;15.90;46.60;;;;;;5095319;28;20747;-62
2024/01/01 03:52:50;;;;;;;13.93;3.15;;;15.90;46.60;;;;;;5094904;28;20209;-62
2024/01/01 03:55:16;;;;;;;9.82;2.72;;;15.90;46.60;;;;;;5095246;28;20277;-62
2024/01/01 03:57:44;;;;;;;13.18;3.00;;;15.90;46.60;;;;;;5095071;28;20232;-62
2024/01/01 04:00:12;;;;;;;11.27;2.72;;;15.90;46.60;;;;;;5094587;28;20604;-62
2024/01/01 04:02:40;;;;;;;15.55;3.00;;;15.90;46.70;;;;;;5093342;28;20221;-62
2024/01/01 04:05:08;;;;;;;14.13;3.35;;;15.90;46.60;;;;;;5094774;28;20190;-61
2024/01/01 04:07:37;;;;;;;14.88;2.70;;;15.90;46.60;;;;;;5094725;28;20463;-62
2024/01/01 04:10:05;;;;;;;13.48;3.35;;;15.90;46.60;;;;;;5095143;28;20218;-62
2024/01/01 04:12:32;;;;;;;9.73;2.60;;;15.80;46.50;;;;;;5094952;28;20214;-62
2024/01/01 04:14:59;;;;;;;11.57;2.72;;;15.80;46.50;;;;;;5094942;28;20190;-62
2024/01/01 04:17:25;;;;;;;12.20;3.03;;;15.90;46.60;;;;;;5094904;28;20320;-60
2024/01/01 04:19:53;;;;;;;11.82;2.78;;;15.80;46.40;;;;;;5094856;28;20281;-63
2024/01/01 04:22:20;;;;;;;10.85;2.35;;;15.90;46.60;;;;;;5094266;28;20758;-63
2024/01/01 04:24:49;;;;;;;13.18;3.58;;;15.80;46.40;;;;;;5094836;28;20222;-62
2024/01/01 04:27:16;;;;;;;10.20;3.25;;;15.90;46.60;;;;;;5094684;28;20648;-62
2024/01/01 04:29:43;;;;;;;12.13;3.13;;;15.90;46.60;;;;;;5094367;28;20186;-62
2024/01/01 04:32:10;;;;;;;8.70;2.60;;;15.80;46.40;;;;;;5094327;28;20641;-60
2024/01/01 04:34:36;;;;;;;12.25;2.83;;;15.90;46.50;;;;;;5094240;28;20718;-62
2024/01/01 04:37:04;;;;;;;11.18;2.58;;;15.80;46.40;;;;;;5093773;28;20230;-62
2024/01/01 04:39:30;;;;;;;12.88;3.05;;;15.80;46.40;;;;;;5094527;28;20186;-62
2024/01/01 04:41:59;;;;;;;14.82;2.40;;;15.80;46.30;;;;;;5094335;28;20252;-62
2024/01/01 04:44:25;;;;;;;14.55;2.60;;;15.80;46.30;;;;;;5094097;28;20190;-62
2024/01/01 04:46:52;;;;;;;17.42;3.30;;;15.80;46.40;;;;;;5094214;28;20309;-62
2024/01/01 04:49:19;;;;;;;8.57;2.55;;;15.80;46.30;;;;;;5093910;28;20221;-62
2024/01/01 04:51:46;;;;;;;12.63;2.47;;;15.80;46.30;;;;;;5093935;28;20236;-63
2024/01/01 04:54:13;;;;;;;11.55;2.65;;;15.80;46.30;;;;;;5094235;28;20199;-62
2024/01/01 04:56:40;;;;;;;12.18;2.60;;;15.80;46.30;;;;;;5093909;28;20221;-62
2024/01/01 04:59:09;;;;;;;13.23;2.92;;;15.80;46.30;;;;;;5093597;28;20277;-62
2024/01/01 05:01:35;;;;;;;10.00;2.55;;;15.80;46.30;;;;;;5093929;28;20281;-61
2024/01/01 05:04:02;;;;;;;8.85;2.60;;;15.80;46.30;;;;;;5093759;28;20622;-62
2024/01/01 05:06:29;;;;;;;7.75;2.30;;;15.80;46.30;;;;;;5093640;28;20701;-63
2024/01/01 05:08:56;;;;;;;12.35;2.53;;;15.80;46.30;;;;;;5093483;28;20782;-62
2024/01/01 05:11:23;;;;;;;8.70;2.28;;;15.80;46.30;;;;;;5093792;28;20196;-62
2024/01/01 05:13:50;;;;;;;13.75;2.83;;;15.80;46.40;;;;;;5093176;28;20257;-63
2024/01/01 05:16:19;;;;;;;14.80;2.70;;;15.80;46.40;;;;;;5093602;28;20269;-62
2024/01/01 05:18:45;;;;;;;11.25;2.53;;;15.80;46.40;;;;;;5093821;28;20309;-63
2024/01/01 05:21:12;;;;;;;10.32;2.58;;;15.80;46.40;;;;;;5093261;28;20188;-62
2024/01/01 05:23:39;;;;;;;12.60;2.50;;;15.80;46.40;;;;;;5093659;28;20300;-62
2024/01/01 05:26:08;;;;;;;13.98;2.80;;;15.80;46.40;;;;;;5093587;28;20281;-63
2024/01/01 05:28:34;;;;;;;9.40;2.30;;;15.80;46.40;;;;;;5093152;28;20218;-62
2024/01/01 05:31:01;;;;;;;8.80;2.53;;;15.80;46.40;;;;;;5093122;28;20751;-62
2024/01/01 05:33:29;;;;;;;12.70;2.67;;;15.80;46.40;;;;;;5093233;28;20213;-59
2024/01/01 05:35:56;;;;;;;10.82;2.95;;;15.80;46.40;;;;;;5092875;28;20640;-61
2024/01/01 05:38:23;;;;;;;9.75;2.88;;;15.80;46.50;;;;;;5093540;28;20230;-62
2024/01/01 05:40:50;;;;;;;9.55;2.50;;;15.80;46.40;;;;;;5092956;28;20543;-62
2024/01/01 05:43:17;;;;;;;8.30;2.28;;;15.90;46.60;;;;;;5092935;28;20224;-62
2024/01/01 05:45:45;;;;;;;9.43;1.98;;;15.90;46.60;;;;;;5092933;28;20759;-63
2024/01/01 05:48:11;;;;;;;9.30;2.55;;;16.00;46.60;;;;;;5092828;28;20237;-63
2024/01/01 05:50:40;;;;;;;7.43;2.45;;;16.10;46.60;;;;;;5092694;28;20285;-63
2024/01/01 05:53:07;;;;;;;9.32;2.08;;;16.20;46.50;;;;;;5093250;28;20300;-62
2024/01/01 05:55:34;;;;;;;6.93;2.08;;;16.30;46.30;;;;;;5093016;28;20255;-63
2024/01/01 05:58:02;;;;;;;7.95;2.28;;;16.50;46.30;;;;;;5092585;28;20375;-62
2024/01/01 06:00:29;;;;;;;8.10;2.10;;;16.60;46.10;;;;;;5092951;28;20190;-62
2024/01/01 06:02:55;;;;;;;10.02;2.00;;;16.80;46.00;;;;;;5092847;28;20503;-62
2024/01/01 06:05:22;;;;;;;7.80;2.42;;;16.90;45.70;;;;;;5092537;28;20621;-63
2024/01/01 06:07:51;;;;;;;7.65;2.15;;;17.00;45.60;;;;;;5092640;28;20304;-62
2024/01/01 06:10:18;;;;;;;8.10;2.35;;;17.20;45.40;;;;;;5093007;28;20658;-63
2024/01/01 06:12:45;;;;;;;7.68;2.25;;;17.30;45.30;;;;;;5092331;28;20312;-63
2024/01/01 06:15:13;;;;;;;13.30;2.33;;;17.40;45.10;;;;;;5092744;28;20277;-63
2024/01/01 06:17:40;;;;;;;9.13;2.38;;;17.50;44.90;;;;;;5092636;28;20241;-60
2024/01/01 06:20:08;;;;;;;6.60;2.00;;;17.70;44.80;;;;;;5091948;28;20664;-63
2024/01/01 06:22:35;;;;;;;6.63;2.15;;;17.80;44.60;;;;;;5092540;28;20220;-61
2024/01/01 06:25:03;;;;;;;11.02;2.10;;;17.90;44.40;;;;;;5091750;28;20297;-63
2024/01/01 06:27:30;;;;;;;6.63;1.98;;;18.00;44.50;;;;;;5092164;28;20300;-62
2024/01/01 06:29:58;;;;;;;8.25;2.15;;;18.10;44.50;;;;;;5092401;28;20196;-63
2024/01/01 06:32:25;;;;;;;7.82;2.10;;;18.20;44.90;;;;;;5092485;28;20258;-62
2024/01/01 06:34:51;;;;;;;10.07;2.28;;;18.30;44.10;;;;;;5092008;28;20240;-62
2024/01/01 06:37:18;;;;;;;8.57;2.30;;;18.40;44.00;;;;;;5092356;28;20725;-63
2024/01/01 06:39:45;;;;;;;7.35;1.92;;;18.50;43.90;;;;;;5092070;28;20281;-63
2024/01/01 06:42:15;;;;;;;7.40;1.92;;;18.60;43.90;;;;;;5092006;28;20296;-63
2024/01/01 06:44:42;;;;;;;9.40;2.00;;;18.70;43.80;;;;;;5092307;28;20186;-62
2024/01/01 06:47:08;;;;;;;6.57;1.95;;;18.70;44.20;;;;;;5092154;28;20325;-62
2024/01/01 06:49:35;;;;;;;6.47;1.88;;;18.80;43.50;;;;;;5091774;28;20891;-63
2024/01/01 06:52:03;;;;;;;8.57;2.38;;;18.90;43.50;;;;;;5092287;28;20686;-62
2024/01/01 06:54:30;;;;;;;10.25;2.35;;;19.00;43.40;;;;;;5092278;28;20186;-62
2024/01/01 06:56:57;;;;;;;8.82;2.15;;;19.00;43.30;;;;;;5091806;28;20213;-62
2024/01/01 06:59:28;;;;;;;8.00;1.92;;;19.10;43.10;;;;;;5092215;28;20277;-62
2024/01/01 07:01:57;;;;;;;9.45;2.08;;;19.20;43.10;;;;;;5091960;28;20277;-62
2024/01/01 07:04:24;;;;;;;6.88;1.75;;;19.20;43.00;;;;;;5091926;28;20277;-63
2024/01/01 07:06:51;;;;;;;6.93;2.20;;;19.20;42.80;;;;;;5091739;28;20656;-63
2024/01/01 07:09:18;;;;;;;10.10;2.00;;;19.30;42.80;;;;;;5092135;28;20205;-62
2024/01/01 07:11:45;;;;;;;8.15;2.38;;;19.40;42.70;;;;;;5091771;28;20285;-63
2024/01/01 07:14:12;;;;;;;5.65;1.92;;;19.50;42.70;;;;;;5092075;28;20273;-63
2024/01/01 07:16:40;;;;;;;6.20;1.90;;;19.50;42.50;;;;;;5091858;28;20281;-62
2024/01/01 07:19:07;;;;;;;7.57;1.92;;;19.60;42.60;;;;;;5091956;28;20313;-63
2024/01/01 07:21:34;;;;;;;10.82;2.10;;;19.60;42.60;;;;;;5091890;28;20218;-62
2024/01/01 07:24:02;;;;;;;8.48;2.33;;;19.60;42.40;;;;;;5091636;28;20634;-63
2024/01/01 07:26:29;;;;;;;7.72;1.88;;;19.70;42.50;;;;;;5091274;28;20289;-62
2024/01/01 07:28:56;;;;;;;5.97;1.75;;;19.70;42.20;;;;;;5091990;28;20309;-62
2024/01/01 07:31:22;;;;;;;8.95;1.88;;;19.80;42.20;;;;;;5091789;28;20183;-63
2024/01/01 07:33:51;;;;;;;7.82;2.17;;;19.80;42.10;;;;;;5091922;28;20228;-60
2024/01/01 07:36:18;;;;;;;7.80;2.20;;;19.80;42.00;;;;;;5093148;28;20201;-60
2024/01/01 07:38:44;;;;;;;5.35;1.73;;;19.90;42.10;;;;;;5095587;28;20638;-60
2024/01/01 07:41:11;;;;;;;5.75;1.65;;;19.90;42.00;;;;;;5095232;28;20190;-60
2024/01/01 07:43:39;;;;;;;5.50;1.90;;;19.90;41.80;;;;;;5095867;28;20218;-60
2024/01/01 07:46:09;;;;;;;5.35;2.00;;;20.00;41.80;;;;;;5095563;28;20182;-60
2024/01/01 07:48:36;;;;;;;8.25;2.47;;;20.00;41.80;;;;;;5095074;28;20238;-60
2024/01/01 07:51:04;;;;;;;5.95;1.75;;;20.00;41.60;;;;;;5095284;28;20611;-60
2024/01/01 07:53:32;;;;;;;8.25;1.92;;;20.10;41.50;;;;;;5095212;28;20779;-60
2024/01/01 07:56:01;;;;;;;6.00;1.73;;;20.00;41.40;;;;;;5095110;28;20589;-60
2024/01/01 07:58:28;;;;;;;6.70;2.05;;;20.00;41.30;;;;;;5095375;28;20244;-60
2024/01/01 08:00:56;;;;;;;8.70;2.00;;;20.00;41.40;;;;;;5095156;28;20281;-60
2024/01/01 08:03:23;;;;;;;6.80;1.80;;;19.90;41.40;;;;;;5095003;28;20271;-60
2024/01/01 08:05:50;;;;;;;9.10;2.22;;;19.80;41.60;;;;;;5095064;28;20258;-60
2024/01/01 08:08:18;;;;;;;5.88;1.73;;;19.80;41.70;;;;;;5095227;28;20297;-60
2024/01/01 08:10:45;;;;;;;10.90;2.13;;;19.60;41.70;;;;;;5094623;28;20273;-59
2024/01/01 08:13:12;;;;;;;5.93;2.17;;;19.50;41.90;;;;;;5095095;28;20220;-59
2024/01/01 08:15:39;;;;;;;5.28;1.48;;;19.50;42.00;;;;;;5094974;28;20194;-59
2024/01/01 08:18:06;;;;;;;6.80;1.75;;;19.30;42.10;;;;;;5094405;28;20317;-60
2024/01/01 08:20:33;;;;;;;5.30;1.90;;;19.20;42.20;;;;;;5094837;28;20277;-60
2024/01/01 08:23:00;;;;;;;9.45;2.55;;;19.10;42.20;;;;;;5094731;28;20309;-60
2024/01/01 08:25:28;;;;;;;7.70;1.63;;;19.00;42.30;;;;;;5094468;28;20276;-60
2024/01/01 08:27:55;;;;;;;8.75;1.85;;;19.00;42.50;;;;;;5094748;28;20524;-60
2024/01/01 08:30:22;;;;;;;6.07;1.75;;;18.80;42.50;;;;;;5094601;28;20268;-60
2024/01/01 08:32:49;;;;;;;6.75;1.80;;;18.70;42.50;;;;;;5094045;28;20668;-59
2024/01/01 08:35:16;;;;;;;6.20;1.50;;;18.60;42.60;;;;;;5094607;28;20236;-60
2024/01/01 08:37:43;;;;;;;7.32;1.85;;;18.50;42.80;;;;;;5094456;28;20317;-60
2024/01/01 08:40:12;;;;;;;6.03;1.77;;;18.50;42.90;;;;;;5093970;28;20190;-60
2024/01/01 08:42:40;;;;;;;7.13;2.10;;;18.40;43.00;;;;;;5094196;28;20305;-59
2024/01/01 08:45:09;;;;;;;7.07;1.90;;;18.30;43.10;;;;;;5094440;28;20288;-60
2024/01/01 08:47:36;;;;;;;7.65;1.83;;;18.30;43.20;;;;;;5092736;28;20732;-60
2024/01/01 08:50:03;;;;;;;7.10;1.90;;;18.20;43.30;;;;;;5094473;28;20221;-59
2024/01/01 08:52:29;;;;;;;6.78;1.88;;;18.10;43.40;;;;;;5094106;28;20304;-60
2024/01/01 08:54:56;;;;;;;6.13;1.80;;;18.10;43.50;;;;;;5093883;28;20281;-60
2024/01/01 08:57:23;;;;;;;7.03;2.28;;;18.00;43.50;;;;;;5093704;28;20309;-60
2024/01/01 08:59:51;;;;;;;6.03;1.90;;;18.00;43.70;;;;;;5093744;28;20277;-60
2024/01/01 09:02:18;;;;;;;4.50;1.60;;;17.90;43.80;;;;;;5093711;28;20210;-60
2024/01/01 09:04:45;;;;;;;6.35;1.88;;;17.80;43.90;;;;;;5094072;28;20194;-60
2024/01/01 09:07:12;;;;;;;4.72;1.65;;;17.80;44.10;;;;;;5093904;28;20216;-60
2024/01/01 09:09:39;;;;;;;8.18;1.70;;;17.70;44.20;;;;;;5093902;28;20224;-60
2024/01/01 09:12:06;;;;;;;4.90;1.52;;;17.70;44.30;;;;;;5093598;28;20269;-60
2024/01/01 09:14:34;;;;;;;6.35;1.80;;;17.70;44.30;;;;;;5093680;28;20625;-60
2024/01/01 09:17:03;;;;;;;5.38;1.92;;;17.60;44.20;;;;;;5093313;28;20186;-60
2024/01/01 09:19:30;;;;;;;7.05;1.77;;;17.50;44.10;;;;;;5093229;28;20256;-60
2024/01/01 09:21:57;;;;;;;9.15;2.00;;;17.50;44.30;;;;;;5093365;28;20719;-60
2024/01/01 09:24:24;;;;;;;8.82;2.13;;;17.50;44.30;;;;;;5093612;28;20186;-60
2024/01/01 09:26:51;;;;;;;6.00;1.85;;;17.50;45.20;;;;;;5093286;28;20182;-60
2024/01/01 09:29:18;;;;;;;4.88;1.60;;;17.40;44.50;;;;;;5093760;28;20209;-60
2024/01/01 09:31:45;;;;;;;6.70;2.00;;;17.30;44.60;;;;;;5093436;28;20273;-60
2024/01/01 09:34:13;;;;;;;8.00;2.03;;;17.30;44.70;;;;;;5093359;28;20305;-60
2024/01/01 09:36:41;;;;;;;7.15;2.00;;;17.30;44.70;;;;;;5093337;28;20277;-60
2024/01/01 09:39:08;;;;;;;8.02;2.00;;;17.30;44.90;;;;;;5093478;28;20294;-60
2024/01/01 09:41:35;;;;;;;7.32;2.10;;;17.30;45.00;;;;;;5092918;28;20285;-60
2024/01/01 09:44:03;;;;;;;6.47;1.90;;;17.20;45.00;;;;;;5093432;28;20297;-60
2024/01/01 09:46:33;;;;;;;6.07;1.70;;;17.20;45.00;;;;;;5092589;28;20227;-60
2024/01/01 09:49:00;;;;;;;9.30;2.10;;;17.20;45.10;;;;;;5092566;28;20249;-60
2024/01/01 09:51:28;;;;;;;5.63;1.88;;;17.20;45.10;;;;;;5093049;28;20296;-60
2024/01/01 09:53:55;;;;;;;5.57;1.85;;;17.10;45.20;;;;;;5093268;28;20343;-60
2024/01/01 09:56:22;;;;;;;6.75;2.22;;;17.10;45.20;;;;;;5092703;28;20221;-63
2024/01/01 09:58:49;;;;;;;5.93;2.15;;;17.10;45.30;;;;;;5092932;28;20691;-63
2024/01/01 10:01:18;;;;;;;6.15;1.83;;;17.10;45.30;;;;;;5092831;28;20186;-63
2024/01/01 10:04:00;;;;;;;7.25;1.70;;;17.10;45.40;;;;;;5092855;28;20220;-62
2024/01/01 10:06:28;;;;;;;8.07;1.98;;;17.00;45.40;;;;;;5092591;28;20675;-62
2024/01/01 10:09:05;;;;;;;8.02;2.10;;;17.00;45.40;;;;;;5092462;28;20308;-63
2024/01/01 10:11:33;;;;;;;8.75;2.00;;;17.00;45.50;;;;;;5092419;28;20652;-63
2024/01/01 10:14:03;;;;;;;8.13;1.60;;;17.00;45.50;;;;;;5092930;28;20633;-63
2024/01/01 10:16:31;;;;;;;4.78;1.88;;;16.90;45.50;;;;;;5092610;28;20190;-63
2024/01/01 10:18:59;;;;;;;6.65;1.77;;;16.90;45.60;;;;;;5092117;28;20234;-60
2024/01/01 10:21:29;;;;;;;5.85;1.80;;;16.90;45.50;;;;;;5092386;28;20645;-60
2024/01/01 10:23:56;;;;;;;7.00;1.83;;;16.90;45.60;;;;;;5092622;28;20221;-62
2024/01/01 10:26:23;;;;;;;9.63;2.08;;;16.90;45.80;;;;;;5092250;28;20221;-63
2024/01/01 10:28:50;;;;;;;9.50;2.45;;;16.90;45.80;;;;;;5092829;28;20220;-63
2024/01/01 10:31:17;;;;;;;7.10;2.05;;;16.90;45.80;;;;;;5092213;28;20272;-62
2024/01/01 10:33:45;;;;;;;7.95;2.08;;;16.90;45.90;;;;;;5092176;28;20301;-63
2024/01/01 10:36:16;;;;;;;4.85;1.60;;;16.90;46.60;;;;;;5092480;28;20265;-63
2024/01/01 10:38:48;;;;;;;5.90;1.80;;;16.80;46.00;;;;;;5091975;28;20233;-63
2024/01/01 10:41:17;;;;;;;7.95;1.88;;;16.80;46.00;;;;;;5092295;28;20221;-63
2024/01/01 10:43:46;;;;;;;8.68;2.03;;;16.80;45.90;;;;;;5092712;28;20267;-62
2024/01/01 10:46:14;;;;;;;7.95;1.85;;;16.80;46.00;;;;;;5091726;28;20285;-63
2024/01/01 10:48:44;;;;;;;7.30;2.10;;;16.80;46.00;;;;;;5091986;28;20869;-63
2024/01/01 10:51:35;;;;;;;7.43;1.73;;;16.80;46.80;;;;;;5091871;28;20186;-63
2024/01/01 10:54:40;;;;;;;6.13;1.95;;;16.80;46.30;;;;;;5091962;28;20229;-60
2024/01/01 10:57:39;;;;;;;7.18;2.13;;;16.70;46.20;;;;;;5082620;28;20280;-60
2024/01/01 11:00:15;;;;;;;6.72;1.63;;;16.70;46.30;;;;;;5092168;28;20305;-60
2024/01/01 11:02:44;;;;;;;6.35;1.65;;;16.70;46.30;;;;;;5091498;28;20223;-60
2024/01/01 11:05:12;;;;;;;5.00;2.05;;;16.70;46.30;;;;;;5092277;28;20281;-60
2024/01/01 11:07:58;;;;;;;5.53;1.70;;;16.70;46.40;;;;;;5092121;28;20304;-60
2024/01/01 11:10:41;;;;;;;8.15;1.98;;;16.70;46.50;;;;;;5092289;28;20197;-59
2024/01/01 11:13:12;;;;;;;7.30;1.73;;;16.70;46.60;;;;;;5096190;28;20221;-60
2024/01/01 11:15:40;;;;;;;6.15;1.73;;;16.70;46.60;;;;;;5095571;28;20186;-60
2024/01/01 11:18:15;;;;;;;6.95;1.80;;;16.70;46.60;;;;;;5095812;28;20253;-60
2024/01/01 11:20:53;;;;;;;6.88;2.13;;;16.70;46.70;;;;;;5095607;28;20601;-62
2024/01/01 11:23:39;;;;;;;6.22;1.67;;;16.70;46.70;;;;;;5095199;28;20735;-63
2024/01/01 11:26:27;;;;;;;6.18;1.70;;;16.60;46.70;;;;;;5095946;28;20190;-62
2024/01/01 11:28:55;;;;;;;4.78;1.75;;;16.60;46.80;;;;;;5095769;28;20221;-63
2024/01/01 11:31:23;;;;;;;8.07;1.73;;;16.60;47.40;;;;;;5095181;28;20186;-63
2024/01/01 11:34:00;;;;;;;7.60;1.60;;;16.60;46.80;;;;;;5095723;28;20320;-60
2024/01/01 11:36:27;;;;;;;6.78;1.67;;;16.60;46.90;;;;;;5095850;28;20293;-60
2024/01/01 11:38:54;;;;;;;6.20;1.95;;;16.60;47.00;;;;;;5095200;28;20230;-60
2024/01/01 11:41:24;;;;;;;6.55;1.80;;;16.60;47.00;;;;;;5095313;28;20241;-59
2024/01/01 11:43:53;;;;;;;6.97;1.90;;;16.60;47.00;;;;;;5095544;28;20301;-62
2024/01/01 11:46:27;;;;;;;5.95;1.92;;;16.60;47.00;;;;;;5095052;28;20243;-60
2024/01/01 11:48:58;;;;;;;5.18;1.80;;;16.60;47.20;;;;;;5095058;28;20304;-60
2024/01/01 11:51:26;;;;;;;6.28;1.60;;;16.60;47.10;;;;;;5095855;28;20197;-63
2024/01/01 11:54:07;;;;;;;6.50;1.90;;;16.60;47.10;;;;;;5094516;28;20309;-62
2024/01/01 11:56:35;;;;;;;6.35;1.50;;;16.50;47.10;;;;;;5095255;28;20225;-60
2024/01/01 11:59:04;;;;;;;9.48;1.88;;;16.50;47.20;;;;;;5095265;28;20305;-60
2024/01/01 12:01:31;;;;;;;6.70;1.83;;;16.50;47.20;;;;;;5094550;28;20277;-60
2024/01/01 12:04:00;;;;;;;7.72;1.95;;;16.50;47.20;;;;;;5095157;28;20551;-63
2024/01/01 12:06:28;;;;;;;4.60;1.75;;;16.50;47.30;;;;;;5094849;28;20723;-62
2024/01/01 12:09:12;;;;;;;7.10;1.65;;;16.50;47.30;;;;;;5094883;28;20332;-62
2024/01/01 12:11:40;;;;;;;6.15;1.83;;;16.50;47.50;;;;;;5094814;28;20687;-63
2024/01/01 12:14:08;;;;;;;3.70;1.60;;;16.50;47.40;;;;;;5094923;28;20301;-63
2024/01/01 12:16:36;;;;;;;6.35;1.50;;;16.50;47.40;;;;;;5094656;28;20266;-60
2024/01/01 12:19:06;;;;;;;4.88;1.40;;;16.50;47.50;;;;;;5094548;28;20778;-62
2024/01/01 12:21:40;;;;;;;6.53;1.50;;;16.50;47.60;;;;;;5094255;28;20735;-63
2024/01/01 12:24:08;;;;;;;4.20;1.70;;;16.50;48.30;;;;;;5094012;28;20300;-60
2024/01/01 12:26:36;;;;;;;5.25;1.80;;;16.50;47.60;;;;;;5094822;28;20268;-63
2024/01/01 12:29:14;;;;;;;9.05;1.73;;;16.50;47.60;;;;;;5094771;28;20304;-63
2024/01/01 12:31:42;;;;;;;8.38;1.67;;;16.50;47.70;;;;;;5094281;28;20193;-62
2024/01/01 12:34:13;;;;;;;6.38;1.90;;;16.50;47.80;;;;;;5094344;28;20313;-63
2024/01/01 12:36:41;;;;;;;6.90;1.80;;;16.50;47.80;;;;;;5094607;28;20666;-62
2024/01/01 12:39:08;;;;;;;5.68;1.70;;;16.50;47.90;;;;;;5094189;28;20321;-63
2024/01/01 12:41:34;;;;;;;5.45;1.63;;;16.50;47.90;;;;;;5094431;28;20277;-60
2024/01/01 12:44:01;;;;;;;8.35;2.15;;;16.40;47.80;;;;;;5094156;28;20778;-60
2024/01/01 12:46:31;;;;;;;5.65;1.65;;;16.40;47.90;;;;;;5093827;28;20281;-60
2024/01/01 12:48:58;;;;;;;6.13;1.98;;;16.40;47.90;;;;;;5094295;28;20806;-63